This is the latest recevied weather packets stored in our database for station/object IN3APK-3. If no packets are shown the sender has not sent any weather packets the latest 10 day(s).
| Time | Temp. | Humidity | Pressure | Rain* | Wind** | Luminosity | Snow |
|---|---|---|---|---|---|---|---|
| 1777024351 | 18.89° C | 28% | 1011.8 hPa | - | - | - | - |
| 1777023046 | 16.67° C | 28% | 1012.1 hPa | - | - | - | - |
| 1777022392 | 15.56° C | 28% | 1012.2 hPa | - | - | - | - |
| 1777021740 | 15° C | 28% | 1012.2 hPa | - | - | - | - |
| 1777021087 | 14.44° C | 28% | 1012.4 hPa | - | - | - | - |
| 1777020435 | 13.89° C | 28% | 1012.5 hPa | - | - | - | - |
| 1777019782 | 12.78° C | 28% | 1012.6 hPa | - | - | - | - |
| 1777019130 | 12.22° C | 29% | 1012.8 hPa | - | - | - | - |
| 1777018478 | 11.67° C | 29% | 1012.9 hPa | - | - | - | - |
| 1777017825 | 11.11° C | 29% | 1013 hPa | - | - | - | - |
| 1777017172 | 10.56° C | 29% | 1013 hPa | - | - | - | - |
| 1777016520 | 10° C | 29% | 1013.2 hPa | - | - | - | - |
| 1777015868 | 10° C | 29% | 1013.2 hPa | - | - | - | - |
| 1777015214 | 9.44° C | 29% | 1013.3 hPa | - | - | - | - |
| 1777014562 | 8.89° C | 29% | 1013.4 hPa | - | - | - | - |
| 1777013910 | 8.89° C | 29% | 1013.4 hPa | - | - | - | - |
| 1777013257 | 8.89° C | 29% | 1013.4 hPa | - | - | - | - |
| 1777012605 | 8.33° C | 29% | 1013.5 hPa | - | - | - | - |
| 1777010647 | 6.67° C | 29% | 1013.7 hPa | - | - | - | - |
| 1777009342 | 6.11° C | 29% | 1013.8 hPa | - | - | - | - |
| 1777008690 | 6.11° C | 29% | 1013.8 hPa | - | - | - | - |
| 1777008037 | 6.11° C | 29% | 1013.7 hPa | - | - | - | - |
| 1777007385 | 5.56° C | 29% | 1013.7 hPa | - | - | - | - |
| 1777006733 | 5.56° C | 29% | 1013.8 hPa | - | - | - | - |
| 1777006081 | 5.56° C | 28% | 1013.7 hPa | - | - | - | - |
* Rain since midnight (hover to see other rain measurements)
** Current wind speed in m/s (hover to see current wind gust speed)